Time;durP1;ratioP1;P1;durP2;ratioP2;P2;SDS_P1;SDS_P2;PMS_P1;PMS_P2;Temp;Humidity;BMP_temperature;BMP_pressure;BME280_temperature;BME280_humidity;BME280_pressure;Samples;Min_cycle;Max_cycle;Signal;HPM_P1;HPM_P2
2021/06/15 04:57:22;;;;;;;2.30;2.10;;;;;;;21.91;53.41;96913.69;5088491;27;20615;-71
2021/06/15 05:00:57;;;;;;;2.00;1.90;;;;;;;21.96;51.90;96914.44;5122278;27;21035;-70
2021/06/15 05:03:22;;;;;;;2.10;1.90;;;;;;;22.42;50.67;96910.06;5089285;28;20267;-71
2021/06/15 05:05:49;;;;;;;2.72;2.05;;;;;;;22.61;50.14;96919.53;5089575;28;20805;-70
2021/06/15 05:08:20;;;;;;;2.58;2.03;;;;;;;22.80;48.94;96906.84;5089547;28;20176;-70
2021/06/15 05:10:46;;;;;;;2.47;2.28;;;;;;;22.80;49.03;96912.19;5107169;28;20182;-70
2021/06/15 05:13:14;;;;;;;3.58;2.47;;;;;;;22.92;48.82;96917.00;5107148;28;20191;-71
2021/06/15 05:15:43;;;;;;;2.47;2.17;;;;;;;23.25;48.61;96922.91;5099789;28;20255;-70
2021/06/15 05:18:10;;;;;;;2.30;2.10;;;;;;;23.36;47.80;96916.22;5091725;28;20263;-70
2021/06/15 05:20:36;;;;;;;3.40;2.45;;;;;;;23.50;47.98;96922.34;5088843;28;20203;-70
2021/06/15 05:23:17;;;;;;;3.08;2.13;;;;;;;23.44;48.60;96920.06;5098026;28;20650;-70
2021/06/15 05:25:42;;;;;;;2.28;2.08;;;;;;;23.53;47.66;96926.28;5091806;28;20188;-70
2021/06/15 05:28:08;;;;;;;2.45;2.20;;;;;;;23.86;47.33;96919.50;5100402;28;20180;-69
2021/06/15 05:30:33;;;;;;;2.50;2.30;;;;;;;23.95;47.06;96933.75;5092349;28;20192;-65
2021/06/15 05:32:59;;;;;;;3.05;2.70;;;;;;;24.16;46.74;96930.50;5090519;28;20342;-69
2021/06/15 05:35:25;;;;;;;2.30;2.10;;;;;;;24.46;46.21;96931.59;5102737;28;20185;-70
2021/06/15 05:37:51;;;;;;;1.90;1.80;;;;;;;24.77;45.30;96927.69;5096433;28;20271;-70
2021/06/15 05:40:17;;;;;;;6.90;2.20;;;;;;;24.96;44.63;96929.31;5103511;28;20276;-70
2021/06/15 05:42:43;;;;;;;2.38;2.17;;;;;;;25.38;43.31;96931.19;5087696;28;20570;-69
2021/06/15 05:45:10;;;;;;;2.15;1.92;;;;;;;25.59;42.83;96929.44;5104850;28;20269;-70
2021/06/15 05:47:37;;;;;;;2.45;2.10;;;;;;;25.79;42.45;96930.66;5094843;28;20188;-70
2021/06/15 05:50:06;;;;;;;3.90;1.90;;;;;;;25.93;42.32;96939.28;5099391;28;20196;-70
2021/06/15 05:52:32;;;;;;;2.33;2.10;;;;;;;26.14;41.41;96935.91;5105959;28;20177;-65
2021/06/15 05:54:59;;;;;;;2.03;1.88;;;;;;;26.28;40.63;96933.81;5106141;28;20188;-70
2021/06/15 05:57:26;;;;;;;3.33;1.77;;;;;;;26.19;40.91;96935.72;5104852;28;20194;-70
2021/06/15 05:59:52;;;;;;;2.17;2.03;;;;;;;26.21;40.69;96938.88;5102593;28;20355;-71
2021/06/15 06:02:17;;;;;;;3.35;1.73;;;;;;;26.32;40.61;96932.03;5091674;28;20630;-69
2021/06/15 06:10:41;;;;;;;1.95;1.75;;;;;;;26.81;39.57;96931.25;5079760;28;20191;-68
2021/06/15 06:13:11;;;;;;;3.05;2.00;;;;;;;26.52;40.30;96930.53;5071614;28;20181;-69
2021/06/15 06:15:36;;;;;;;3.03;1.70;;;;;;;26.78;40.15;96931.94;5070656;28;20268;-68
2021/06/15 06:18:07;;;;;;;3.25;1.83;;;;;;;26.87;40.48;96940.75;5054527;28;20272;-69
2021/06/15 06:20:33;;;;;;;2.15;1.88;;;;;;;26.94;40.33;96936.75;5054467;28;20224;-64
2021/06/15 06:22:59;;;;;;;2.55;2.08;;;;;;;26.99;41.34;96936.53;5053605;28;20201;-69
2021/06/15 06:25:27;;;;;;;2.33;2.10;;;;;;;26.94;41.30;96945.59;5054724;28;20324;-68
2021/06/15 06:27:52;;;;;;;2.90;2.60;;;;;;;26.87;41.98;96946.13;5053781;28;20388;-69
2021/06/15 06:30:18;;;;;;;3.88;2.08;;;;;;;26.88;42.29;96936.94;5071176;28;20674;-69
2021/06/15 06:32:44;;;;;;;2.80;2.60;;;;;;;26.89;42.09;96943.13;5070350;28;20195;-69
2021/06/15 06:35:10;;;;;;;3.05;2.40;;;;;;;27.10;42.34;96943.91;5070618;28;20285;-69
2021/06/15 06:37:35;;;;;;;3.80;2.20;;;;;;;27.10;42.01;96943.09;5069657;28;20204;-66
2021/06/15 06:40:02;;;;;;;4.43;2.60;;;;;;;27.13;41.88;96943.25;5070957;28;20270;-68
2021/06/15 06:42:28;;;;;;;3.25;2.70;;;;;;;27.11;41.95;96942.78;5076962;28;20189;-69
2021/06/15 06:44:53;;;;;;;2.78;2.58;;;;;;;27.19;41.65;96939.25;5085569;28;20177;-68
2021/06/15 06:47:19;;;;;;;3.42;2.40;;;;;;;27.04;42.10;96947.91;5088777;28;20202;-69
2021/06/15 06:49:44;;;;;;;5.50;2.72;;;;;;;27.09;41.78;96938.84;5077013;28;20186;-69
2021/06/15 06:52:09;;;;;;;7.80;2.83;;;;;;;27.00;42.11;96941.59;5093050;28;20212;-69
2021/06/15 06:54:35;;;;;;;2.70;2.50;;;;;;;26.84;42.81;96948.66;5081683;28;20204;-64
2021/06/15 06:57:00;;;;;;;2.30;2.10;;;;;;;26.99;41.94;96948.09;5081433;28;20268;-69
2021/06/15 06:59:25;;;;;;;2.28;2.08;;;;;;;27.06;41.65;96944.88;5085034;28;20229;-69
2021/06/15 07:01:51;;;;;;;3.08;2.42;;;;;;;27.08;41.55;96942.66;5085855;28;20707;-69
2021/06/15 07:04:16;;;;;;;2.13;1.90;;;;;;;27.05;41.90;96949.47;5088571;28;20185;-70
2021/06/15 07:06:41;;;;;;;2.25;2.13;;;;;;;27.20;41.11;96954.25;5086229;28;20597;-69
2021/06/15 07:09:07;;;;;;;2.97;2.10;;;;;;;27.09;41.41;96952.28;5086087;28;20185;-69
2021/06/15 07:11:32;;;;;;;2.67;2.20;;;;;;;27.20;41.01;96943.50;5074322;28;20196;-65
2021/06/15 07:13:58;;;;;;;2.42;2.20;;;;;;;27.24;41.05;96952.50;5085044;28;20267;-74
2021/06/15 07:16:23;;;;;;;2.10;1.98;;;;;;;27.09;41.27;96953.09;5082016;28;20177;-73
2021/06/15 07:18:49;;;;;;;2.63;2.38;;;;;;;27.12;41.85;96947.06;5082768;28;20188;-75
2021/06/15 07:21:14;;;;;;;3.72;2.50;;;;;;;27.08;41.33;96956.13;5084587;28;20185;-74
2021/06/15 07:23:40;;;;;;;4.05;2.40;;;;;;;27.00;41.39;96949.69;5079827;28;20196;-72
2021/06/15 07:26:06;;;;;;;5.60;2.22;;;;;;;27.07;39.96;96949.16;5090486;28;20176;-74
2021/06/15 07:28:32;;;;;;;2.70;2.25;;;;;;;26.81;41.46;96952.00;5078442;28;20581;-74
2021/06/15 07:30:57;;;;;;;3.33;2.40;;;;;;;26.78;42.04;96947.28;5073753;28;20691;-75
2021/06/15 07:33:23;;;;;;;2.45;2.00;;;;;;;26.83;41.84;96941.69;5070629;28;20216;-74
2021/06/15 07:35:48;;;;;;;2.40;2.20;;;;;;;26.81;41.66;96938.53;5068781;28;20181;-74
2021/06/15 07:38:14;;;;;;;3.80;2.20;;;;;;;26.97;41.01;96939.59;5070895;28;20189;-74
2021/06/15 07:40:39;;;;;;;2.50;2.20;;;;;;;27.20;40.76;96940.00;5068908;28;20232;-73
2021/06/15 07:43:04;;;;;;;4.93;2.47;;;;;;;27.11;40.81;96939.31;5075465;28;20173;-74
2021/06/15 07:45:33;;;;;;;2.42;2.05;;;;;;;26.97;39.97;96944.97;5078962;28;20193;-75
2021/06/15 07:47:58;;;;;;;3.53;2.30;;;;;;;26.79;39.66;96944.28;5076377;28;20651;-73
2021/06/15 07:50:24;;;;;;;2.42;2.22;;;;;;;26.84;40.24;96948.66;5076352;28;20195;-74
2021/06/15 07:52:50;;;;;;;3.45;2.40;;;;;;;26.99;40.76;96945.41;5074854;28;21524;-75
2021/06/15 07:55:17;;;;;;;2.53;2.30;;;;;;;27.05;39.59;96954.88;5082100;28;20272;-74
2021/06/15 07:57:44;;;;;;;4.22;2.00;;;;;;;27.22;39.55;96948.56;5076699;28;20197;-75
2021/06/15 08:00:10;;;;;;;3.25;1.83;;;;;;;27.20;38.69;96950.78;5080546;28;20285;-74
2021/06/15 08:02:36;;;;;;;2.42;1.90;;;;;;;27.25;38.71;96950.59;5080982;28;20650;-70
2021/06/15 08:05:02;;;;;;;1.80;1.70;;;;;;;27.27;39.38;96945.66;5084011;28;20197;-69
2021/06/15 08:07:28;;;;;;;2.50;2.30;;;;;;;27.06;41.56;96944.88;5071992;28;20195;-74
2021/06/15 08:09:54;;;;;;;2.33;2.13;;;;;;;26.75;41.65;96946.00;5082993;28;20189;-73
2021/06/15 08:12:20;;;;;;;2.60;2.20;;;;;;;26.32;42.69;96958.91;5079290;28;20191;-73
2021/06/15 08:14:46;;;;;;;2.40;1.90;;;;;;;26.02;44.09;96952.72;5088475;28;20184;-73
2021/06/15 08:17:12;;;;;;;2.17;1.98;;;;;;;25.86;45.53;96948.94;5086099;28;20685;-73
2021/06/15 08:19:37;;;;;;;3.30;2.10;;;;;;;26.14;44.52;96950.09;5077375;28;20287;-68
2021/06/15 08:22:02;;;;;;;3.15;2.47;;;;;;;26.33;43.38;96952.44;5080735;28;20185;-72
2021/06/15 08:24:28;;;;;;;2.38;2.17;;;;;;;25.86;43.87;96955.09;5072262;28;20223;-74
2021/06/15 08:26:53;;;;;;;4.03;2.25;;;;;;;26.29;43.40;96951.53;5081865;28;20189;-73
2021/06/15 08:29:19;;;;;;;3.33;1.92;;;;;;;26.54;43.10;96941.72;5084044;28;20322;-73
2021/06/15 08:31:45;;;;;;;3.33;2.33;;;;;;;26.64;42.99;96941.38;5080571;28;20185;-74
2021/06/15 08:34:11;;;;;;;2.00;1.90;;;;;;;26.45;43.55;96950.66;5086143;28;20225;-74
2021/06/15 08:36:37;;;;;;;2.38;2.15;;;;;;;26.67;43.13;96946.88;5088512;28;20180;-68
2021/06/15 08:39:04;;;;;;;4.10;2.42;;;;;;;25.97;42.47;96950.97;5073793;28;20573;-73
2021/06/15 08:41:31;;;;;;;3.22;2.05;;;;;;;25.83;43.06;96960.34;5073742;28;20173;-74
2021/06/15 08:43:57;;;;;;;3.10;2.40;;;;;;;26.06;42.64;96956.31;5076306;28;20192;-73
2021/06/15 08:46:22;;;;;;;2.08;1.88;;;;;;;26.17;41.80;96956.75;5082300;28;20203;-74
2021/06/15 08:48:48;;;;;;;3.00;2.10;;;;;;;26.17;42.01;96954.06;5078427;28;20603;-73
2021/06/15 08:51:13;;;;;;;2.40;2.20;;;;;;;25.96;40.36;96960.16;5069875;28;20250;-74
2021/06/15 08:53:39;;;;;;;2.80;1.98;;;;;;;25.57;42.06;96960.41;5070536;28;20711;-67
2021/06/15 08:56:20;;;;;;;2.88;2.45;;;;;;;25.41;41.15;96957.38;5079674;28;20180;-74
2021/06/15 08:59:16;;;;;;;3.00;2.50;;;;;;;25.72;39.96;96953.72;5071497;28;20178;-74
2021/06/15 09:01:43;;;;;;;3.30;2.42;;;;;;;26.01;39.75;96948.44;5078017;28;20209;-74
2021/06/15 09:04:08;;;;;;;3.38;2.00;;;;;;;26.26;39.22;96957.53;5082860;28;20188;-74
2021/06/15 09:06:34;;;;;;;2.92;1.83;;;;;;;26.28;37.38;96955.31;5078739;28;20253;-74
2021/06/15 09:09:01;;;;;;;2.47;2.00;;;;;;;25.83;38.19;96955.75;5073156;28;20192;-74
2021/06/15 09:11:45;;;;;;;2.50;2.05;;;;;;;25.69;38.56;96955.16;5083343;28;20269;-74
2021/06/15 09:14:10;;;;;;;2.03;1.92;;;;;;;25.77;38.32;96951.66;5083405;28;20185;-74
2021/06/15 09:16:36;;;;;;;2.92;2.05;;;;;;;25.71;39.96;96957.53;5085476;28;20184;-68
2021/06/15 09:19:14;;;;;;;2.88;1.98;;;;;;;26.13;40.61;96959.31;5080597;28;20215;-73
2021/06/15 09:21:42;;;;;;;3.20;2.17;;;;;;;26.09;40.50;96959.16;5079988;28;20250;-68
2021/06/15 09:24:24;;;;;;;2.35;2.15;;;;;;;26.04;39.89;96956.63;5071314;28;20184;-74
2021/06/15 09:26:50;;;;;;;2.08;1.88;;;;;;;26.08;40.69;96951.44;5070681;28;20219;-74
2021/06/15 09:29:16;;;;;;;2.20;1.90;;;;;;;26.17;40.61;96960.22;5070517;28;20201;-71
2021/06/15 09:31:51;;;;;;;5.53;2.00;;;;;;;25.83;40.68;96953.06;5082176;28;20180;-74
2021/06/15 09:34:17;;;;;;;2.28;1.92;;;;;;;25.94;39.43;96964.25;5091160;28;20620;-74
2021/06/15 09:36:43;;;;;;;1.63;1.52;;;;;;;25.96;39.23;96959.38;5081884;28;20177;-73
2021/06/15 09:39:09;;;;;;;2.13;1.92;;;;;;;26.17;38.00;96959.44;5082705;28;20246;-73
2021/06/15 09:41:35;;;;;;;2.22;1.77;;;;;;;25.63;38.71;96970.63;5080867;28;20185;-74
2021/06/15 09:44:21;;;;;;;2.08;1.88;;;;;;;25.86;37.60;96970.44;5087564;28;20196;-74
2021/06/15 09:46:55;;;;;;;2.65;1.73;;;;;;;25.91;38.06;96972.97;5063694;28;20259;-74
2021/06/15 09:49:39;;;;;;;2.38;1.60;;;;;;;25.75;37.40;96975.34;5084555;28;20211;-74
2021/06/15 09:52:26;;;;;;;3.08;2.00;;;;;;;25.75;37.84;96956.56;5083867;28;20189;-73
2021/06/15 09:54:55;;;;;;;1.83;1.73;;;;;;;26.10;37.70;96973.38;5075780;28;20216;-74
2021/06/15 09:57:29;;;;;;;3.47;1.98;;;;;;;26.11;37.85;96971.47;5083563;28;20276;-74
2021/06/15 10:00:05;;;;;;;2.22;2.03;;;;;;;26.25;37.52;96972.09;5078360;28;20674;-74
2021/06/15 10:02:32;;;;;;;2.13;1.95;;;;;;;25.82;38.00;96969.50;5089956;28;20183;-74
2021/06/15 10:05:03;;;;;;;2.35;1.88;;;;;;;26.15;38.10;96967.03;5078264;28;20256;-74
2021/06/15 10:07:30;;;;;;;2.60;1.80;;;;;;;26.56;38.09;96969.88;5085731;28;20268;-74
2021/06/15 10:09:57;;;;;;;2.58;1.77;;;;;;;26.37;37.88;96972.97;5079846;28;20184;-74
2021/06/15 10:12:24;;;;;;;2.80;1.98;;;;;;;26.30;38.25;96964.66;5075902;28;20181;-73
2021/06/15 10:14:53;;;;;;;2.65;2.30;;;;;;;26.89;37.61;96960.06;5090528;28;20195;-74
2021/06/15 10:17:19;;;;;;;1.65;1.52;;;;;;;26.54;35.95;96966.72;5086754;28;20261;-73
2021/06/15 10:19:46;;;;;;;1.60;1.50;;;;;;;26.30;36.51;96974.59;5080775;28;20216;-74
2021/06/15 10:22:12;;;;;;;2.35;1.98;;;;;;;26.35;36.03;96971.72;5086447;28;20744;-74
2021/06/15 10:24:38;;;;;;;2.45;1.95;;;;;;;26.59;35.90;96966.53;5082985;28;20181;-68
2021/06/15 10:27:06;;;;;;;1.80;1.70;;;;;;;26.13;35.96;96974.63;5076464;28;20264;-73
2021/06/15 10:29:33;;;;;;;1.92;1.83;;;;;;;26.15;35.76;96969.72;5093899;28;20268;-73
2021/06/15 10:31:58;;;;;;;2.20;1.90;;;;;;;26.23;36.25;96966.25;5088847;28;20204;-73
2021/06/15 10:34:54;;;;;;;2.20;1.98;;;;;;;26.71;35.76;96955.88;5078877;28;20208;-74
2021/06/15 10:37:32;;;;;;;2.53;1.83;;;;;;;26.77;34.87;96951.88;5076839;28;20267;-74
2021/06/15 10:40:03;;;;;;;1.80;1.70;;;;;;;26.75;35.75;96951.41;5076230;28;20216;-74
2021/06/15 10:42:28;;;;;;;1.80;1.60;;;;;;;26.95;35.06;96949.09;5085464;28;20649;-74
2021/06/15 10:45:11;;;;;;;2.42;1.60;;;;;;;27.29;34.83;96948.81;5077818;28;20186;-74
2021/06/15 10:47:38;;;;;;;1.65;1.55;;;;;;;27.04;33.58;96947.13;5077418;28;20181;-68
2021/06/15 10:50:04;;;;;;;1.60;1.50;;;;;;;26.91;34.15;96945.50;5074455;28;20242;-74
2021/06/15 10:53:02;;;;;;;1.77;1.67;;;;;;;27.20;34.24;96948.09;5087411;28;20315;-74
2021/06/15 10:56:03;;;;;;;1.92;1.80;;;;;;;27.37;32.79;96944.47;5081092;28;20189;-74
2021/06/15 10:58:28;;;;;;;2.28;1.52;;;;;;;27.57;33.13;96944.47;5074874;28;20177;-74
2021/06/15 11:00:54;;;;;;;1.48;1.38;;;;;;;27.29;33.79;96946.13;5079600;28;20753;-74
2021/06/15 11:03:23;;;;;;;1.52;1.42;;;;;;;26.80;34.26;96940.47;5081182;28;20185;-79
2021/06/15 11:05:53;;;;;;;3.85;1.58;;;;;;;26.93;33.63;96943.25;5091267;28;20254;-79
2021/06/15 11:08:27;;;;;;;2.88;1.90;;;;;;;26.82;33.45;96940.13;5088370;28;20205;-74
2021/06/15 11:10:56;;;;;;;1.98;1.70;;;;;;;26.88;34.41;96939.63;5062184;28;20191;-79
2021/06/15 11:13:46;;;;;;;1.67;1.40;;;;;;;27.32;33.16;96940.06;5078211;28;20290;-80
2021/06/15 11:16:32;;;;;;;2.00;1.80;;;;;;;27.78;32.95;96944.41;5086969;28;20192;-80
2021/06/15 11:21:43;;;;;;;2.58;1.80;;;;;;;28.35;32.24;96939.00;5087458;28;20664;-80
2021/06/15 11:24:19;;;;;;;2.30;2.03;;;;;;;28.45;32.27;96935.06;5081422;28;20185;-79
2021/06/15 11:26:47;;;;;;;3.80;1.77;;;;;;;28.41;32.84;96934.16;5088145;28;20187;-78
2021/06/15 11:29:25;;;;;;;3.95;1.90;;;;;;;28.41;32.23;96934.16;5090475;28;20249;-77
2021/06/15 11:31:51;;;;;;;1.85;1.75;;;;;;;28.28;31.29;96933.38;5083731;28;20189;-80
2021/06/15 11:34:17;;;;;;;1.77;1.67;;;;;;;27.82;31.08;96928.34;5073611;28;20615;-80
2021/06/15 11:36:51;;;;;;;1.70;1.60;;;;;;;27.88;31.72;96922.41;5080077;28;20188;-71
2021/06/15 11:39:27;;;;;;;2.00;1.80;;;;;;;27.81;31.84;96927.56;5088357;28;20282;-78
2021/06/15 11:42:30;;;;;;;1.65;1.55;;;;;;;27.74;32.46;96924.66;5061148;28;20259;-78
2021/06/15 11:45:02;;;;;;;1.70;1.60;;;;;;;27.70;33.41;96923.72;5077174;28;20256;-80
2021/06/15 11:47:32;;;;;;;2.40;1.90;;;;;;;27.18;33.93;96921.53;5088172;28;20193;-79
2021/06/15 11:50:24;;;;;;;3.10;1.70;;;;;;;26.92;34.39;96926.31;5075624;28;20601;-79
2021/06/15 11:52:57;;;;;;;2.00;1.90;;;;;;;27.07;32.64;96928.41;5083098;28;20536;-79
2021/06/15 11:55:24;;;;;;;1.90;1.77;;;;;;;26.72;33.65;96922.47;5075934;28;20642;-79
2021/06/15 11:57:56;;;;;;;2.50;1.88;;;;;;;26.97;34.23;96917.28;5082148;28;20186;-77
2021/06/15 12:00:21;;;;;;;2.63;1.80;;;;;;;27.01;33.43;96920.88;5076718;28;20248;-79
2021/06/15 12:02:47;;;;;;;2.70;1.90;;;;;;;26.83;34.15;96928.25;5083126;28;20577;-79
2021/06/15 12:05:15;;;;;;;1.83;1.73;;;;;;;26.81;33.30;96923.19;5083814;28;20638;-79
2021/06/15 12:07:43;;;;;;;1.80;1.70;;;;;;;26.98;33.37;96926.91;5085155;28;20626;-72
2021/06/15 12:10:14;;;;;;;2.22;1.92;;;;;;;26.69;34.04;96925.03;5076738;28;20213;-79
2021/06/15 12:13:00;;;;;;;2.47;1.85;;;;;;;26.91;32.93;96924.75;5068933;28;20221;-71
2021/06/15 12:15:46;;;;;;;3.08;1.70;;;;;;;27.03;31.92;96919.41;5086634;28;20264;-79
2021/06/15 12:18:20;;;;;;;1.60;1.50;;;;;;;27.01;31.89;96907.41;5068550;28;20325;-79
2021/06/15 12:20:48;;;;;;;1.98;1.65;;;;;;;27.04;32.15;96912.91;5080994;28;20196;-78
2021/06/15 12:23:40;;;;;;;1.65;1.55;;;;;;;26.84;32.54;96919.06;5078018;28;20579;-77
2021/06/15 12:26:16;;;;;;;2.58;1.77;;;;;;;26.92;33.11;96904.78;5080923;28;20185;-78
2021/06/15 12:28:45;;;;;;;1.75;1.63;;;;;;;27.17;32.65;96909.19;5071614;28;20169;-70
2021/06/15 12:31:34;;;;;;;2.70;1.70;;;;;;;27.69;32.07;96903.31;5073161;28;20285;-78
2021/06/15 12:34:06;;;;;;;2.50;1.90;;;;;;;27.98;30.88;96902.31;5086452;28;20193;-79
2021/06/15 12:36:33;;;;;;;1.75;1.65;;;;;;;28.24;30.40;96907.44;5078374;28;20185;-79
2021/06/15 12:39:30;;;;;;;2.05;1.80;;;;;;;28.24;30.87;96896.66;5071075;28;20185;-77
2021/06/15 12:42:04;;;;;;;2.33;1.90;;;;;;;28.50;30.16;96897.06;5069934;28;20657;-76
2021/06/15 12:44:42;;;;;;;1.50;1.40;;;;;;;28.52;30.03;96895.63;5075627;28;20198;-78
2021/06/15 12:47:10;;;;;;;1.50;1.40;;;;;;;28.66;29.89;96895.22;5082595;28;20173;-78
2021/06/15 12:49:36;;;;;;;1.77;1.67;;;;;;;28.54;30.00;96895.25;5086088;28;20212;-78
2021/06/15 12:52:10;;;;;;;1.75;1.50;;;;;;;27.89;30.95;96890.88;5077129;28;20733;-78
2021/06/15 12:54:45;;;;;;;1.77;1.67;;;;;;;27.80;30.90;96890.97;5064086;28;20180;-77
2021/06/15 12:57:22;;;;;;;1.70;1.60;;;;;;;27.64;30.11;96890.06;5087313;28;20180;-74
2021/06/15 13:00:00;;;;;;;1.83;1.73;;;;;;;27.56;30.36;96882.84;5076543;28;20228;-78
2021/06/15 13:02:26;;;;;;;1.70;1.60;;;;;;;27.47;30.21;96880.22;5081351;28;20180;-78
2021/06/15 13:04:55;;;;;;;1.80;1.70;;;;;;;27.58;28.96;96883.31;5077004;28;20185;-76
2021/06/15 13:07:22;;;;;;;1.48;1.38;;;;;;;27.78;29.57;96885.13;5083194;28;20188;-77
2021/06/15 13:09:48;;;;;;;1.70;1.60;;;;;;;27.78;29.03;96876.25;5072333;28;20704;-77
2021/06/15 13:12:28;;;;;;;1.50;1.40;;;;;;;28.06;28.71;96888.75;5078367;28;20651;-78
2021/06/15 13:15:03;;;;;;;1.60;1.50;;;;;;;28.01;27.86;96882.78;5079882;28;20184;-77
2021/06/15 13:17:30;;;;;;;1.85;1.40;;;;;;;27.54;28.47;96885.06;5084110;28;20180;-79
2021/06/15 13:20:08;;;;;;;1.52;1.42;;;;;;;27.61;28.32;96875.34;5077468;28;20217;-76
2021/06/15 13:22:37;;;;;;;1.63;1.52;;;;;;;27.48;27.74;96872.91;5090790;28;20176;-76
2021/06/15 13:25:05;;;;;;;1.83;1.65;;;;;;;27.38;28.31;96874.13;5074631;28;20197;-75
2021/06/15 13:27:40;;;;;;;1.83;1.73;;;;;;;27.39;28.50;96874.91;5084261;28;20185;-73
2021/06/15 13:30:12;;;;;;;1.40;1.30;;;;;;;27.49;28.05;96872.59;5082303;28;21039;-73
2021/06/15 13:32:42;;;;;;;2.58;1.40;;;;;;;27.64;27.90;96868.50;5084545;28;20621;-75
2021/06/15 13:35:08;;;;;;;1.40;1.40;;;;;;;27.66;27.73;96867.03;5093162;28;20279;-73
2021/06/15 13:37:40;;;;;;;1.45;1.38;;;;;;;27.27;26.83;96868.38;5074707;28;20689;-75
2021/06/15 13:40:09;;;;;;;2.65;1.75;;;;;;;27.26;27.92;96866.81;5089562;28;20203;-74
2021/06/15 13:42:36;;;;;;;1.50;1.40;;;;;;;27.31;29.08;96863.91;5079876;28;20256;-76
2021/06/15 13:45:06;;;;;;;1.75;1.65;;;;;;;27.45;29.69;96860.91;5077735;28;20255;-73
2021/06/15 13:47:32;;;;;;;1.80;1.70;;;;;;;27.76;29.45;96863.13;5076980;28;20268;-74
2021/06/15 13:49:57;;;;;;;1.67;1.58;;;;;;;27.87;28.94;96861.56;5086226;28;20212;-75
2021/06/15 13:52:23;;;;;;;1.90;1.80;;;;;;;27.86;28.04;96860.00;5090429;28;20205;-76
2021/06/15 13:54:48;;;;;;;1.95;1.85;;;;;;;27.75;28.96;96863.47;5080302;28;20185;-75
2021/06/15 13:57:14;;;;;;;1.50;1.38;;;;;;;27.51;28.91;96859.63;5079295;28;20190;-77
2021/06/15 13:59:39;;;;;;;1.83;1.73;;;;;;;27.62;28.89;96852.69;5089085;28;20670;-76
2021/06/15 14:02:05;;;;;;;1.70;1.60;;;;;;;27.54;27.94;96853.53;5089904;28;20188;-76
2021/06/15 14:04:30;;;;;;;1.58;1.48;;;;;;;27.55;28.26;96838.97;5079571;28;20219;-77
2021/06/15 14:06:56;;;;;;;1.67;1.58;;;;;;;27.52;28.11;96838.84;5082527;28;20261;-77
2021/06/15 14:09:21;;;;;;;1.60;1.50;;;;;;;27.60;28.73;96841.44;5092902;28;20606;-77
2021/06/15 14:11:47;;;;;;;1.70;1.60;;;;;;;27.88;28.91;96840.78;5091043;28;20267;-70
2021/06/15 14:14:12;;;;;;;2.70;1.70;;;;;;;28.08;28.23;96838.00;5079397;28;20638;-76
2021/06/15 14:16:38;;;;;;;1.50;1.45;;;;;;;28.15;28.35;96836.66;5085347;28;20184;-77
2021/06/15 14:19:03;;;;;;;3.30;1.70;;;;;;;28.32;28.38;96841.78;5084619;28;20214;-76
2021/06/15 14:21:37;;;;;;;1.70;1.60;;;;;;;28.41;28.21;96839.78;5091737;28;20196;-79
2021/06/15 14:24:07;;;;;;;1.52;1.42;;;;;;;28.41;27.82;96837.09;5083336;28;20169;-78
2021/06/15 14:26:32;;;;;;;1.92;1.83;;;;;;;28.09;28.86;96826.06;5080434;28;20182;-77
2021/06/15 14:28:58;;;;;;;1.60;1.50;;;;;;;28.17;28.93;96829.81;5076757;28;20186;-75
2021/06/15 14:31:23;;;;;;;1.55;1.45;;;;;;;28.15;28.50;96828.56;5078975;28;20181;-76
2021/06/15 14:33:48;;;;;;;1.73;1.63;;;;;;;28.09;29.43;96826.06;5079370;28;20227;-74
2021/06/15 14:36:14;;;;;;;1.92;1.52;;;;;;;27.77;29.49;96843.13;5081661;28;20292;-76
2021/06/15 14:38:39;;;;;;;1.70;1.60;;;;;;;27.78;30.40;96844.72;5083411;28;20173;-76
2021/06/15 14:41:05;;;;;;;1.80;1.70;;;;;;;27.85;30.72;96839.56;5084315;28;20329;-76
2021/06/15 14:43:30;;;;;;;2.35;1.80;;;;;;;27.85;30.12;96838.78;5077848;28;20197;-75
2021/06/15 14:45:56;;;;;;;1.70;1.60;;;;;;;28.06;29.85;96834.84;5081754;28;20709;-76
2021/06/15 14:48:21;;;;;;;1.45;1.42;;;;;;;27.84;29.02;96839.91;5084682;28;20180;-76
2021/06/15 14:50:47;;;;;;;1.65;1.40;;;;;;;28.03;29.46;96830.09;5085782;28;20184;-70
2021/06/15 14:53:12;;;;;;;1.45;1.38;;;;;;;28.13;28.10;96834.31;5074875;28;20184;-73
2021/06/15 14:55:37;;;;;;;2.25;1.40;;;;;;;28.16;28.33;96835.53;5083732;28;20540;-75
2021/06/15 14:58:03;;;;;;;2.67;1.55;;;;;;;28.25;28.39;96830.81;5080095;28;20173;-75
2021/06/15 15:00:28;;;;;;;1.63;1.52;;;;;;;28.07;29.02;96831.03;5078555;28;20311;-76
2021/06/15 15:02:54;;;;;;;1.42;1.42;;;;;;;28.02;29.17;96825.88;5078025;28;20638;-75
2021/06/15 15:05:20;;;;;;;1.60;1.50;;;;;;;27.88;29.74;96822.72;5087654;28;20250;-75
2021/06/15 15:07:45;;;;;;;1.80;1.70;;;;;;;27.69;29.48;96825.97;5078711;28;20185;-71
2021/06/15 15:10:15;;;;;;;2.15;1.85;;;;;;;27.57;29.04;96827.88;5080781;28;20246;-75
2021/06/15 15:12:41;;;;;;;2.75;1.50;;;;;;;27.76;29.09;96828.09;5087856;28;20196;-76
2021/06/15 15:15:07;;;;;;;1.50;1.40;;;;;;;27.83;28.48;96822.16;5078601;28;20358;-75
2021/06/15 15:17:32;;;;;;;1.88;1.52;;;;;;;27.79;28.44;96816.66;5081318;28;20231;-76
2021/06/15 15:19:57;;;;;;;1.60;1.50;;;;;;;27.69;29.02;96822.50;5073329;28;20209;-76
2021/06/15 15:22:23;;;;;;;1.50;1.40;;;;;;;27.81;28.94;96817.09;5076171;28;20208;-75
2021/06/15 15:24:49;;;;;;;3.03;1.50;;;;;;;27.87;28.22;96823.03;5084348;28;20188;-71
2021/06/15 15:27:18;;;;;;;1.63;1.52;;;;;;;27.92;28.70;96817.47;5088537;28;20185;-75
2021/06/15 15:29:44;;;;;;;1.75;1.65;;;;;;;27.83;28.41;96814.06;5083745;28;20196;-75
2021/06/15 15:32:10;;;;;;;1.67;1.58;;;;;;;27.82;28.50;96810.59;5077081;28;20189;-76
2021/06/15 15:34:35;;;;;;;1.25;1.20;;;;;;;27.84;28.59;96807.56;5080851;28;20188;-76
2021/06/15 15:37:01;;;;;;;1.50;1.40;;;;;;;27.94;27.83;96801.72;5074862;28;20638;-75
2021/06/15 15:39:26;;;;;;;1.40;1.40;;;;;;;27.59;27.50;96799.47;5091037;28;20243;-75
2021/06/15 15:41:51;;;;;;;2.38;1.40;;;;;;;27.72;27.35;96805.66;5083349;28;20215;-75
2021/06/15 15:44:17;;;;;;;1.33;1.23;;;;;;;27.52;27.46;96796.56;5086922;28;20176;-75
2021/06/15 15:46:44;;;;;;;1.50;1.40;;;;;;;27.77;27.70;96794.66;5079525;28;20596;-75
2021/06/15 15:49:14;;;;;;;1.58;1.42;;;;;;;27.71;27.80;96793.28;5079138;28;20177;-76
2021/06/15 15:51:40;;;;;;;4.07;1.50;;;;;;;27.55;28.26;96785.09;5084968;28;20173;-76
2021/06/15 15:54:06;;;;;;;2.75;1.50;;;;;;;27.54;28.85;96794.31;5074788;28;20196;-75
2021/06/15 15:56:32;;;;;;;3.55;1.40;;;;;;;27.66;28.49;96797.00;5074112;28;20185;-75
2021/06/15 15:58:57;;;;;;;1.40;1.30;;;;;;;27.76;28.54;96793.06;5074318;28;20220;-75
2021/06/15 16:01:23;;;;;;;1.75;1.33;;;;;;;27.78;28.59;96790.03;5087918;28;20231;-76
2021/06/15 16:03:48;;;;;;;1.42;1.35;;;;;;;27.82;28.52;96790.94;5078637;28;20184;-69
2021/06/15 16:06:14;;;;;;;1.63;1.52;;;;;;;27.81;29.25;96792.09;5089637;28;20536;-76
2021/06/15 16:08:39;;;;;;;2.40;1.50;;;;;;;27.89;29.48;96789.25;5080096;28;20311;-75
2021/06/15 16:11:06;;;;;;;1.70;1.60;;;;;;;28.02;28.87;96785.44;5077568;28;20204;-76
2021/06/15 16:13:31;;;;;;;2.42;1.55;;;;;;;28.02;28.52;96782.75;5090509;28;20659;-75
2021/06/15 16:15:56;;;;;;;1.52;1.42;;;;;;;27.84;28.84;96789.50;5082985;28;20181;-75
2021/06/15 16:18:22;;;;;;;1.38;1.38;;;;;;;27.79;29.51;96784.34;5072057;28;20188;-76
2021/06/15 16:20:48;;;;;;;2.28;1.40;;;;;;;27.98;28.07;96784.53;5082229;28;20237;-71
2021/06/15 16:23:14;;;;;;;1.63;1.42;;;;;;;28.01;28.12;96778.47;5077467;28;20196;-75
2021/06/15 16:25:41;;;;;;;1.70;1.60;;;;;;;28.08;28.60;96777.91;5073087;28;20174;-75
2021/06/15 16:28:08;;;;;;;1.50;1.40;;;;;;;28.19;27.18;96783.66;5080658;28;20271;-75
2021/06/15 16:30:34;;;;;;;1.85;1.50;;;;;;;28.21;27.80;96775.97;5079079;28;20289;-76
2021/06/15 16:33:00;;;;;;;1.77;1.60;;;;;;;28.11;28.34;96775.31;5074623;28;20185;-75
2021/06/15 16:35:26;;;;;;;1.63;1.40;;;;;;;28.02;28.72;96776.56;5087704;28;20192;-75
2021/06/15 16:37:53;;;;;;;1.60;1.50;;;;;;;27.81;28.43;96773.22;5077777;28;20184;-70
2021/06/15 16:40:21;;;;;;;1.40;1.40;;;;;;;27.76;28.80;96778.81;5080687;28;20276;-75
2021/06/15 16:42:48;;;;;;;1.65;1.55;;;;;;;27.59;28.66;96772.53;5088282;28;20176;-75
2021/06/15 16:45:16;;;;;;;1.67;1.58;;;;;;;27.69;28.62;96771.31;5075830;28;20642;-72
2021/06/15 16:47:43;;;;;;;1.50;1.45;;;;;;;27.68;28.59;96769.75;5080171;28;20578;-75